sensor_id;sensor_type;location;lat;lon;timestamp;P1;durP1;ratioP1;P2;durP2;ratioP2
677;SDS011;321;48.814;9.132;2023-04-28T00:00:00;3.00;;;2.07;;
677;SDS011;321;48.814;9.132;2023-04-28T00:02:28;2.10;;;1.60;;
677;SDS011;321;48.814;9.132;2023-04-28T00:04:54;3.10;;;1.47;;
677;SDS011;321;48.814;9.132;2023-04-28T00:07:19;2.40;;;1.80;;
677;SDS011;321;48.814;9.132;2023-04-28T00:09:45;2.00;;;1.57;;
677;SDS011;321;48.814;9.132;2023-04-28T00:12:10;4.37;;;1.90;;
677;SDS011;321;48.814;9.132;2023-04-28T00:14:36;1.60;;;1.20;;
677;SDS011;321;48.814;9.132;2023-04-28T00:17:01;2.90;;;2.03;;
677;SDS011;321;48.814;9.132;2023-04-28T00:19:27;5.37;;;1.80;;
677;SDS011;321;48.814;9.132;2023-04-28T00:21:53;2.40;;;1.07;;
677;SDS011;321;48.814;9.132;2023-04-28T00:24:18;1.30;;;0.90;;
677;SDS011;321;48.814;9.132;2023-04-28T00:26:44;3.00;;;1.20;;
677;SDS011;321;48.814;9.132;2023-04-28T00:29:10;2.47;;;1.70;;
677;SDS011;321;48.814;9.132;2023-04-28T00:31:35;2.17;;;1.47;;
677;SDS011;321;48.814;9.132;2023-04-28T00:34:01;2.30;;;1.60;;
677;SDS011;321;48.814;9.132;2023-04-28T00:36:26;2.47;;;1.97;;
677;SDS011;321;48.814;9.132;2023-04-28T00:38:56;2.90;;;1.80;;
677;SDS011;321;48.814;9.132;2023-04-28T00:41:22;3.33;;;1.77;;
677;SDS011;321;48.814;9.132;2023-04-28T00:43:48;1.50;;;1.03;;
677;SDS011;321;48.814;9.132;2023-04-28T00:46:19;1.80;;;1.60;;
677;SDS011;321;48.814;9.132;2023-04-28T00:48:54;1.97;;;1.57;;
677;SDS011;321;48.814;9.132;2023-04-28T00:51:20;3.30;;;1.70;;
677;SDS011;321;48.814;9.132;2023-04-28T00:53:46;2.23;;;1.37;;
677;SDS011;321;48.814;9.132;2023-04-28T00:56:13;3.30;;;1.70;;
677;SDS011;321;48.814;9.132;2023-04-28T00:58:39;2.63;;;1.60;;
677;SDS011;321;48.814;9.132;2023-04-28T01:01:06;2.60;;;1.70;;
677;SDS011;321;48.814;9.132;2023-04-28T01:03:33;2.17;;;1.57;;
677;SDS011;321;48.814;9.132;2023-04-28T01:06:01;2.13;;;1.57;;
677;SDS011;321;48.814;9.132;2023-04-28T01:08:31;3.47;;;2.20;;
677;SDS011;321;48.814;9.132;2023-04-28T01:10:58;2.73;;;1.20;;
677;SDS011;321;48.814;9.132;2023-04-28T01:13:24;1.80;;;1.57;;
677;SDS011;321;48.814;9.132;2023-04-28T01:15:50;1.80;;;1.30;;
677;SDS011;321;48.814;9.132;2023-04-28T01:18:16;2.87;;;1.90;;
677;SDS011;321;48.814;9.132;2023-04-28T01:20:42;1.70;;;1.27;;
677;SDS011;321;48.814;9.132;2023-04-28T01:23:14;1.93;;;1.23;;
677;SDS011;321;48.814;9.132;2023-04-28T01:25:41;2.63;;;1.77;;
677;SDS011;321;48.814;9.132;2023-04-28T01:28:07;2.73;;;2.10;;
677;SDS011;321;48.814;9.132;2023-04-28T01:30:33;2.60;;;2.00;;
677;SDS011;321;48.814;9.132;2023-04-28T01:32:59;2.27;;;1.77;;
677;SDS011;321;48.814;9.132;2023-04-28T01:35:25;2.47;;;1.73;;
677;SDS011;321;48.814;9.132;2023-04-28T01:37:51;1.70;;;1.30;;
677;SDS011;321;48.814;9.132;2023-04-28T01:40:16;3.27;;;2.17;;
677;SDS011;321;48.814;9.132;2023-04-28T01:42:42;2.57;;;1.53;;
677;SDS011;321;48.814;9.132;2023-04-28T01:45:08;1.90;;;1.43;;
677;SDS011;321;48.814;9.132;2023-04-28T01:47:34;1.83;;;1.17;;
677;SDS011;321;48.814;9.132;2023-04-28T01:49:59;3.30;;;2.37;;
677;SDS011;321;48.814;9.132;2023-04-28T01:52:25;1.83;;;1.37;;
677;SDS011;321;48.814;9.132;2023-04-28T01:54:52;3.83;;;2.17;;
677;SDS011;321;48.814;9.132;2023-04-28T01:57:18;1.80;;;1.03;;
677;SDS011;321;48.814;9.132;2023-04-28T01:59:43;2.00;;;1.40;;
677;SDS011;321;48.814;9.132;2023-04-28T02:02:09;2.33;;;1.57;;
677;SDS011;321;48.814;9.132;2023-04-28T02:04:36;1.67;;;1.50;;
677;SDS011;321;48.814;9.132;2023-04-28T02:07:02;2.27;;;1.60;;
677;SDS011;321;48.814;9.132;2023-04-28T02:09:28;2.37;;;1.80;;
677;SDS011;321;48.814;9.132;2023-04-28T02:11:53;1.93;;;1.60;;
677;SDS011;321;48.814;9.132;2023-04-28T02:14:19;3.10;;;1.70;;
677;SDS011;321;48.814;9.132;2023-04-28T02:16:44;1.67;;;1.40;;
677;SDS011;321;48.814;9.132;2023-04-28T02:19:10;1.57;;;1.37;;
677;SDS011;321;48.814;9.132;2023-04-28T02:21:36;2.60;;;2.00;;
677;SDS011;321;48.814;9.132;2023-04-28T02:24:01;2.13;;;1.70;;
677;SDS011;321;48.814;9.132;2023-04-28T02:26:27;2.17;;;1.60;;
677;SDS011;321;48.814;9.132;2023-04-28T02:28:52;5.97;;;1.47;;
677;SDS011;321;48.814;9.132;2023-04-28T02:31:18;2.80;;;1.50;;
677;SDS011;321;48.814;9.132;2023-04-28T02:33:44;1.30;;;0.70;;
677;SDS011;321;48.814;9.132;2023-04-28T02:36:09;2.33;;;1.30;;
677;SDS011;321;48.814;9.132;2023-04-28T02:38:35;2.43;;;1.40;;
677;SDS011;321;48.814;9.132;2023-04-28T02:41:02;1.70;;;1.10;;
677;SDS011;321;48.814;9.132;2023-04-28T02:43:29;1.40;;;1.13;;
677;SDS011;321;48.814;9.132;2023-04-28T02:45:55;3.60;;;1.70;;
677;SDS011;321;48.814;9.132;2023-04-28T02:48:22;2.37;;;1.50;;
677;SDS011;321;48.814;9.132;2023-04-28T02:50:48;2.40;;;1.50;;
677;SDS011;321;48.814;9.132;2023-04-28T02:53:13;2.57;;;2.10;;
677;SDS011;321;48.814;9.132;2023-04-28T02:55:39;2.07;;;1.53;;
677;SDS011;321;48.814;9.132;2023-04-28T02:58:05;1.50;;;1.07;;
677;SDS011;321;48.814;9.132;2023-04-28T03:00:30;1.60;;;0.93;;
677;SDS011;321;48.814;9.132;2023-04-28T03:02:56;1.90;;;1.30;;
677;SDS011;321;48.814;9.132;2023-04-28T03:05:22;2.30;;;1.57;;
677;SDS011;321;48.814;9.132;2023-04-28T03:07:47;3.53;;;1.43;;
677;SDS011;321;48.814;9.132;2023-04-28T03:10:13;1.83;;;1.03;;
677;SDS011;321;48.814;9.132;2023-04-28T03:12:38;1.47;;;0.87;;
677;SDS011;321;48.814;9.132;2023-04-28T03:15:05;2.03;;;1.40;;
677;SDS011;321;48.814;9.132;2023-04-28T03:17:32;2.97;;;1.40;;
677;SDS011;321;48.814;9.132;2023-04-28T03:20:00;2.63;;;1.57;;
677;SDS011;321;48.814;9.132;2023-04-28T03:22:26;2.63;;;1.07;;
677;SDS011;321;48.814;9.132;2023-04-28T03:24:52;2.40;;;1.30;;
677;SDS011;321;48.814;9.132;2023-04-28T03:27:17;1.70;;;1.17;;
677;SDS011;321;48.814;9.132;2023-04-28T03:29:43;2.67;;;1.20;;
677;SDS011;321;48.814;9.132;2023-04-28T03:32:09;1.90;;;1.10;;
677;SDS011;321;48.814;9.132;2023-04-28T03:34:34;2.20;;;1.40;;
677;SDS011;321;48.814;9.132;2023-04-28T03:37:00;1.50;;;1.00;;
677;SDS011;321;48.814;9.132;2023-04-28T03:39:26;2.33;;;1.20;;
677;SDS011;321;48.814;9.132;2023-04-28T03:41:51;2.10;;;1.73;;
677;SDS011;321;48.814;9.132;2023-04-28T03:44:17;2.37;;;1.30;;
677;SDS011;321;48.814;9.132;2023-04-28T03:46:43;2.27;;;1.47;;
677;SDS011;321;48.814;9.132;2023-04-28T03:49:08;2.83;;;1.30;;
677;SDS011;321;48.814;9.132;2023-04-28T03:51:34;1.93;;;1.50;;
677;SDS011;321;48.814;9.132;2023-04-28T03:53:59;2.30;;;1.30;;
677;SDS011;321;48.814;9.132;2023-04-28T03:56:25;1.60;;;1.20;;
677;SDS011;321;48.814;9.132;2023-04-28T03:58:50;2.17;;;1.33;;
677;SDS011;321;48.814;9.132;2023-04-28T04:01:16;3.00;;;1.50;;
677;SDS011;321;48.814;9.132;2023-04-28T04:03:42;2.00;;;1.20;;
677;SDS011;321;48.814;9.132;2023-04-28T04:06:07;4.70;;;1.60;;
677;SDS011;321;48.814;9.132;2023-04-28T04:08:33;2.70;;;1.60;;
677;SDS011;321;48.814;9.132;2023-04-28T04:10:58;2.07;;;1.53;;
677;SDS011;321;48.814;9.132;2023-04-28T04:13:24;2.17;;;1.47;;
677;SDS011;321;48.814;9.132;2023-04-28T04:15:49;2.40;;;1.23;;
677;SDS011;321;48.814;9.132;2023-04-28T04:18:16;1.43;;;0.90;;
677;SDS011;321;48.814;9.132;2023-04-28T04:20:42;2.87;;;1.87;;
677;SDS011;321;48.814;9.132;2023-04-28T04:23:08;2.00;;;1.43;;
677;SDS011;321;48.814;9.132;2023-04-28T04:25:33;2.40;;;1.80;;
677;SDS011;321;48.814;9.132;2023-04-28T04:27:59;3.37;;;1.60;;
677;SDS011;321;48.814;9.132;2023-04-28T04:30:25;2.53;;;1.50;;
677;SDS011;321;48.814;9.132;2023-04-28T04:32:50;1.90;;;1.50;;
677;SDS011;321;48.814;9.132;2023-04-28T04:35:16;2.27;;;1.60;;
677;SDS011;321;48.814;9.132;2023-04-28T04:37:41;3.50;;;1.77;;
677;SDS011;321;48.814;9.132;2023-04-28T04:40:08;2.73;;;1.93;;
677;SDS011;321;48.814;9.132;2023-04-28T04:42:34;2.20;;;1.53;;
677;SDS011;321;48.814;9.132;2023-04-28T04:45:00;2.53;;;1.77;;
677;SDS011;321;48.814;9.132;2023-04-28T04:47:25;3.33;;;1.63;;
677;SDS011;321;48.814;9.132;2023-04-28T04:49:52;2.50;;;1.53;;
677;SDS011;321;48.814;9.132;2023-04-28T04:52:17;1.77;;;1.10;;
677;SDS011;321;48.814;9.132;2023-04-28T04:54:43;1.70;;;1.07;;
677;SDS011;321;48.814;9.132;2023-04-28T04:57:09;2.53;;;1.73;;
677;SDS011;321;48.814;9.132;2023-04-28T04:59:36;1.83;;;1.20;;
677;SDS011;321;48.814;9.132;2023-04-28T05:02:01;2.27;;;1.67;;
677;SDS011;321;48.814;9.132;2023-04-28T05:04:27;4.70;;;1.87;;
677;SDS011;321;48.814;9.132;2023-04-28T05:06:52;2.67;;;1.77;;
677;SDS011;321;48.814;9.132;2023-04-28T05:09:18;1.87;;;1.43;;
677;SDS011;321;48.814;9.132;2023-04-28T05:11:44;2.63;;;1.63;;
677;SDS011;321;48.814;9.132;2023-04-28T05:14:09;2.50;;;1.33;;
677;SDS011;321;48.814;9.132;2023-04-28T05:16:35;2.90;;;2.63;;
677;SDS011;321;48.814;9.132;2023-04-28T05:19:02;2.13;;;1.20;;
677;SDS011;321;48.814;9.132;2023-04-28T05:21:28;2.20;;;1.70;;
677;SDS011;321;48.814;9.132;2023-04-28T05:23:55;1.53;;;1.23;;
677;SDS011;321;48.814;9.132;2023-04-28T05:26:21;1.93;;;1.30;;
677;SDS011;321;48.814;9.132;2023-04-28T05:28:47;2.80;;;1.40;;
677;SDS011;321;48.814;9.132;2023-04-28T05:31:12;2.37;;;1.60;;
677;SDS011;321;48.814;9.132;2023-04-28T05:33:38;1.93;;;1.50;;
677;SDS011;321;48.814;9.132;2023-04-28T05:36:03;2.87;;;1.80;;
677;SDS011;321;48.814;9.132;2023-04-28T05:38:29;5.53;;;1.63;;
677;SDS011;321;48.814;9.132;2023-04-28T05:40:56;2.27;;;1.37;;
677;SDS011;321;48.814;9.132;2023-04-28T05:43:22;2.50;;;1.13;;
677;SDS011;321;48.814;9.132;2023-04-28T05:45:48;1.70;;;1.10;;
677;SDS011;321;48.814;9.132;2023-04-28T05:48:13;1.50;;;1.10;;
677;SDS011;321;48.814;9.132;2023-04-28T05:50:40;1.83;;;1.13;;
677;SDS011;321;48.814;9.132;2023-04-28T05:53:05;3.13;;;1.13;;
677;SDS011;321;48.814;9.132;2023-04-28T05:55:31;1.40;;;0.80;;
677;SDS011;321;48.814;9.132;2023-04-28T05:57:58;1.63;;;1.10;;
677;SDS011;321;48.814;9.132;2023-04-28T06:00:23;2.93;;;1.37;;
677;SDS011;321;48.814;9.132;2023-04-28T06:02:49;2.20;;;1.37;;
677;SDS011;321;48.814;9.132;2023-04-28T06:05:15;1.83;;;1.40;;
677;SDS011;321;48.814;9.132;2023-04-28T06:07:41;2.27;;;1.57;;
677;SDS011;321;48.814;9.132;2023-04-28T06:10:07;1.80;;;1.20;;
677;SDS011;321;48.814;9.132;2023-04-28T06:12:33;2.87;;;1.80;;
677;SDS011;321;48.814;9.132;2023-04-28T06:15:00;1.90;;;1.10;;
677;SDS011;321;48.814;9.132;2023-04-28T06:17:26;1.53;;;1.00;;
677;SDS011;321;48.814;9.132;2023-04-28T06:19:51;2.17;;;1.57;;
677;SDS011;321;48.814;9.132;2023-04-28T06:22:18;15.43;;;1.50;;
677;SDS011;321;48.814;9.132;2023-04-28T06:24:44;2.00;;;1.27;;
677;SDS011;321;48.814;9.132;2023-04-28T06:27:09;1.90;;;1.30;;
677;SDS011;321;48.814;9.132;2023-04-28T06:29:35;1.90;;;1.53;;
677;SDS011;321;48.814;9.132;2023-04-28T06:32:01;2.00;;;1.47;;
677;SDS011;321;48.814;9.132;2023-04-28T06:34:27;1.97;;;1.47;;
677;SDS011;321;48.814;9.132;2023-04-28T06:36:53;1.90;;;1.43;;
677;SDS011;321;48.814;9.132;2023-04-28T06:39:20;2.30;;;1.13;;
677;SDS011;321;48.814;9.132;2023-04-28T06:41:46;1.90;;;1.40;;
677;SDS011;321;48.814;9.132;2023-04-28T06:44:11;1.40;;;1.00;;
677;SDS011;321;48.814;9.132;2023-04-28T06:46:37;1.30;;;0.77;;
677;SDS011;321;48.814;9.132;2023-04-28T06:49:02;2.00;;;1.47;;
677;SDS011;321;48.814;9.132;2023-04-28T06:51:29;3.13;;;2.20;;
677;SDS011;321;48.814;9.132;2023-04-28T06:53:56;1.90;;;1.20;;
677;SDS011;321;48.814;9.132;2023-04-28T06:56:22;1.97;;;1.77;;
677;SDS011;321;48.814;9.132;2023-04-28T06:58:48;1.67;;;0.97;;
677;SDS011;321;48.814;9.132;2023-04-28T07:01:14;2.37;;;1.60;;
677;SDS011;321;48.814;9.132;2023-04-28T07:03:41;3.63;;;1.87;;
677;SDS011;321;48.814;9.132;2023-04-28T07:06:06;1.80;;;1.57;;
677;SDS011;321;48.814;9.132;2023-04-28T07:08:33;2.73;;;1.60;;
677;SDS011;321;48.814;9.132;2023-04-28T07:10:59;3.23;;;2.50;;
677;SDS011;321;48.814;9.132;2023-04-28T07:13:28;2.80;;;1.53;;
677;SDS011;321;48.814;9.132;2023-04-28T07:15:56;2.07;;;1.53;;
677;SDS011;321;48.814;9.132;2023-04-28T07:18:22;2.33;;;1.60;;
677;SDS011;321;48.814;9.132;2023-04-28T07:20:47;3.10;;;1.80;;
677;SDS011;321;48.814;9.132;2023-04-28T07:23:13;2.60;;;1.77;;
677;SDS011;321;48.814;9.132;2023-04-28T07:25:39;1.30;;;0.80;;
677;SDS011;321;48.814;9.132;2023-04-28T07:28:05;2.33;;;1.80;;
677;SDS011;321;48.814;9.132;2023-04-28T07:30:32;3.60;;;2.13;;
677;SDS011;321;48.814;9.132;2023-04-28T07:32:58;1.60;;;1.20;;
677;SDS011;321;48.814;9.132;2023-04-28T07:35:24;1.80;;;1.50;;
677;SDS011;321;48.814;9.132;2023-04-28T07:37:50;3.90;;;2.30;;
677;SDS011;321;48.814;9.132;2023-04-28T07:40:16;2.40;;;1.40;;
677;SDS011;321;48.814;9.132;2023-04-28T07:42:42;2.00;;;1.40;;
677;SDS011;321;48.814;9.132;2023-04-28T07:45:08;2.20;;;1.27;;
677;SDS011;321;48.814;9.132;2023-04-28T07:47:34;2.07;;;1.43;;
677;SDS011;321;48.814;9.132;2023-04-28T07:50:00;1.93;;;1.43;;
677;SDS011;321;48.814;9.132;2023-04-28T07:52:30;2.20;;;1.23;;
677;SDS011;321;48.814;9.132;2023-04-28T07:54:57;3.40;;;1.70;;
677;SDS011;321;48.814;9.132;2023-04-28T07:57:22;1.90;;;1.60;;
677;SDS011;321;48.814;9.132;2023-04-28T07:59:48;1.80;;;1.30;;
677;SDS011;321;48.814;9.132;2023-04-28T08:02:14;1.87;;;1.37;;
677;SDS011;321;48.814;9.132;2023-04-28T08:04:40;1.60;;;1.23;;
677;SDS011;321;48.814;9.132;2023-04-28T08:07:05;1.60;;;1.10;;
677;SDS011;321;48.814;9.132;2023-04-28T08:09:33;2.23;;;1.53;;
677;SDS011;321;48.814;9.132;2023-04-28T08:11:59;2.47;;;1.53;;
677;SDS011;321;48.814;9.132;2023-04-28T08:14:25;1.90;;;1.47;;
677;SDS011;321;48.814;9.132;2023-04-28T08:16:51;3.13;;;1.17;;
677;SDS011;321;48.814;9.132;2023-04-28T08:19:16;3.50;;;2.10;;
677;SDS011;321;48.814;9.132;2023-04-28T08:21:42;2.80;;;1.97;;
677;SDS011;321;48.814;9.132;2023-04-28T08:24:08;3.00;;;2.30;;
677;SDS011;321;48.814;9.132;2023-04-28T08:26:35;5.20;;;2.63;;
677;SDS011;321;48.814;9.132;2023-04-28T08:29:01;3.97;;;2.17;;
677;SDS011;321;48.814;9.132;2023-04-28T08:31:26;2.40;;;1.67;;
677;SDS011;321;48.814;9.132;2023-04-28T08:33:52;3.77;;;1.83;;
677;SDS011;321;48.814;9.132;2023-04-28T08:36:18;5.90;;;2.40;;
677;SDS011;321;48.814;9.132;2023-04-28T08:38:43;1.80;;;1.30;;
677;SDS011;321;48.814;9.132;2023-04-28T08:41:09;2.10;;;1.43;;
677;SDS011;321;48.814;9.132;2023-04-28T08:43:40;2.20;;;2.00;;
677;SDS011;321;48.814;9.132;2023-04-28T08:46:07;2.00;;;1.57;;
677;SDS011;321;48.814;9.132;2023-04-28T08:48:42;2.43;;;1.73;;
677;SDS011;321;48.814;9.132;2023-04-28T08:51:16;2.10;;;1.53;;
677;SDS011;321;48.814;9.132;2023-04-28T08:53:55;3.97;;;1.80;;
677;SDS011;321;48.814;9.132;2023-04-28T08:56:23;2.60;;;1.60;;
677;SDS011;321;48.814;9.132;2023-04-28T08:58:54;2.13;;;1.50;;
677;SDS011;321;48.814;9.132;2023-04-28T09:01:20;3.60;;;2.13;;
677;SDS011;321;48.814;9.132;2023-04-28T09:03:47;2.60;;;2.00;;
677;SDS011;321;48.814;9.132;2023-04-28T09:06:13;2.57;;;1.83;;
677;SDS011;321;48.814;9.132;2023-04-28T09:08:38;3.87;;;1.33;;
677;SDS011;321;48.814;9.132;2023-04-28T09:11:04;4.13;;;2.10;;
677;SDS011;321;48.814;9.132;2023-04-28T09:13:32;2.43;;;2.10;;
677;SDS011;321;48.814;9.132;2023-04-28T09:15:59;3.63;;;2.40;;
677;SDS011;321;48.814;9.132;2023-04-28T09:18:25;2.43;;;1.83;;
677;SDS011;321;48.814;9.132;2023-04-28T09:20:51;2.40;;;2.10;;
677;SDS011;321;48.814;9.132;2023-04-28T09:23:17;2.10;;;1.90;;
677;SDS011;321;48.814;9.132;2023-04-28T09:28:40;2.50;;;2.30;;
677;SDS011;321;48.814;9.132;2023-04-28T09:31:05;2.30;;;1.53;;
677;SDS011;321;48.814;9.132;2023-04-28T09:33:56;1.60;;;1.20;;
677;SDS011;321;48.814;9.132;2023-04-28T09:36:26;3.20;;;1.80;;
677;SDS011;321;48.814;9.132;2023-04-28T09:38:54;1.77;;;1.40;;
677;SDS011;321;48.814;9.132;2023-04-28T09:41:22;2.57;;;1.30;;
677;SDS011;321;48.814;9.132;2023-04-28T09:44:16;2.30;;;1.50;;
677;SDS011;321;48.814;9.132;2023-04-28T09:46:43;2.30;;;1.67;;
677;SDS011;321;48.814;9.132;2023-04-28T09:49:12;3.30;;;1.63;;
677;SDS011;321;48.814;9.132;2023-04-28T09:51:39;4.13;;;1.60;;
677;SDS011;321;48.814;9.132;2023-04-28T09:54:06;2.20;;;1.23;;
677;SDS011;321;48.814;9.132;2023-04-28T09:56:33;1.60;;;1.00;;
677;SDS011;321;48.814;9.132;2023-04-28T09:59:02;2.13;;;1.23;;
677;SDS011;321;48.814;9.132;2023-04-28T10:01:31;2.50;;;1.37;;
677;SDS011;321;48.814;9.132;2023-04-28T10:04:07;2.23;;;0.97;;
677;SDS011;321;48.814;9.132;2023-04-28T10:06:33;1.40;;;0.80;;
677;SDS011;321;48.814;9.132;2023-04-28T10:09:02;2.20;;;1.13;;
677;SDS011;321;48.814;9.132;2023-04-28T10:11:29;1.40;;;0.70;;
677;SDS011;321;48.814;9.132;2023-04-28T10:13:54;1.67;;;0.80;;
677;SDS011;321;48.814;9.132;2023-04-28T10:16:21;1.40;;;0.80;;
677;SDS011;321;48.814;9.132;2023-04-28T10:18:47;1.53;;;1.17;;
677;SDS011;321;48.814;9.132;2023-04-28T10:21:16;1.40;;;0.80;;
677;SDS011;321;48.814;9.132;2023-04-28T10:23:56;1.50;;;0.90;;
677;SDS011;321;48.814;9.132;2023-04-28T10:27:02;1.30;;;0.70;;
677;SDS011;321;48.814;9.132;2023-04-28T10:29:30;1.10;;;0.40;;
677;SDS011;321;48.814;9.132;2023-04-28T10:34:41;1.10;;;0.40;;
677;SDS011;321;48.814;9.132;2023-04-28T10:37:07;1.70;;;0.83;;
677;SDS011;321;48.814;9.132;2023-04-28T10:39:32;1.40;;;0.67;;
677;SDS011;321;48.814;9.132;2023-04-28T10:41:59;1.20;;;0.50;;
677;SDS011;321;48.814;9.132;2023-04-28T10:47:14;1.10;;;0.47;;
677;SDS011;321;48.814;9.132;2023-04-28T11:00:39;1.27;;;0.43;;
677;SDS011;321;48.814;9.132;2023-04-28T11:03:05;1.40;;;0.40;;
677;SDS011;321;48.814;9.132;2023-04-28T11:05:31;1.30;;;0.60;;
677;SDS011;321;48.814;9.132;2023-04-28T11:11:10;1.30;;;0.53;;
677;SDS011;321;48.814;9.132;2023-04-28T11:13:43;1.10;;;0.40;;
677;SDS011;321;48.814;9.132;2023-04-28T11:16:12;1.10;;;0.40;;
677;SDS011;321;48.814;9.132;2023-04-28T11:18:49;1.23;;;0.47;;
677;SDS011;321;48.814;9.132;2023-04-28T11:21:20;1.20;;;0.40;;
677;SDS011;321;48.814;9.132;2023-04-28T11:23:46;1.20;;;0.40;;
677;SDS011;321;48.814;9.132;2023-04-28T11:26:13;1.10;;;0.40;;
677;SDS011;321;48.814;9.132;2023-04-28T11:28:57;1.20;;;0.40;;
677;SDS011;321;48.814;9.132;2023-04-28T11:31:23;1.20;;;0.40;;
677;SDS011;321;48.814;9.132;2023-04-28T11:33:53;1.20;;;0.40;;
677;SDS011;321;48.814;9.132;2023-04-28T11:38:58;1.20;;;0.40;;
677;SDS011;321;48.814;9.132;2023-04-28T11:41:24;1.20;;;0.50;;
677;SDS011;321;48.814;9.132;2023-04-28T11:43:50;1.40;;;0.53;;
677;SDS011;321;48.814;9.132;2023-04-28T11:46:17;1.20;;;0.50;;
677;SDS011;321;48.814;9.132;2023-04-28T11:48:44;1.13;;;0.43;;
677;SDS011;321;48.814;9.132;2023-04-28T11:51:10;1.20;;;0.50;;
677;SDS011;321;48.814;9.132;2023-04-28T11:53:54;1.90;;;0.67;;
677;SDS011;321;48.814;9.132;2023-04-28T11:56:19;1.63;;;0.50;;
677;SDS011;321;48.814;9.132;2023-04-28T11:58:45;1.30;;;0.40;;
677;SDS011;321;48.814;9.132;2023-04-28T12:01:23;2.60;;;0.50;;
677;SDS011;321;48.814;9.132;2023-04-28T12:03:48;1.30;;;0.47;;
677;SDS011;321;48.814;9.132;2023-04-28T12:06:17;1.20;;;0.47;;
677;SDS011;321;48.814;9.132;2023-04-28T12:08:43;1.40;;;0.57;;
677;SDS011;321;48.814;9.132;2023-04-28T12:11:12;1.10;;;0.40;;
677;SDS011;321;48.814;9.132;2023-04-28T12:13:38;1.23;;;0.50;;
677;SDS011;321;48.814;9.132;2023-04-28T12:16:05;1.17;;;0.47;;
677;SDS011;321;48.814;9.132;2023-04-28T12:18:32;1.27;;;0.50;;
677;SDS011;321;48.814;9.132;2023-04-28T12:21:02;1.20;;;0.40;;
677;SDS011;321;48.814;9.132;2023-04-28T12:25:58;1.13;;;0.40;;
677;SDS011;321;48.814;9.132;2023-04-28T12:28:37;1.40;;;0.50;;
677;SDS011;321;48.814;9.132;2023-04-28T12:31:04;1.33;;;0.63;;
677;SDS011;321;48.814;9.132;2023-04-28T12:33:32;1.10;;;0.40;;
677;SDS011;321;48.814;9.132;2023-04-28T12:36:04;1.20;;;0.40;;
677;SDS011;321;48.814;9.132;2023-04-28T12:38:30;1.40;;;0.40;;
677;SDS011;321;48.814;9.132;2023-04-28T12:40:56;1.50;;;0.60;;
677;SDS011;321;48.814;9.132;2023-04-28T12:43:23;1.20;;;0.50;;
677;SDS011;321;48.814;9.132;2023-04-28T12:45:50;1.20;;;0.40;;
677;SDS011;321;48.814;9.132;2023-04-28T12:48:17;1.20;;;0.60;;
677;SDS011;321;48.814;9.132;2023-04-28T12:50:43;1.20;;;0.50;;
677;SDS011;321;48.814;9.132;2023-04-28T12:53:08;1.20;;;0.60;;
677;SDS011;321;48.814;9.132;2023-04-28T12:55:34;1.30;;;0.70;;
677;SDS011;321;48.814;9.132;2023-04-28T12:58:00;2.03;;;0.70;;
677;SDS011;321;48.814;9.132;2023-04-28T13:00:26;1.20;;;0.50;;
677;SDS011;321;48.814;9.132;2023-04-28T13:02:51;1.60;;;0.60;;
677;SDS011;321;48.814;9.132;2023-04-28T13:05:17;1.20;;;0.47;;
677;SDS011;321;48.814;9.132;2023-04-28T13:07:43;1.40;;;0.67;;
677;SDS011;321;48.814;9.132;2023-04-28T13:10:09;1.20;;;0.50;;
677;SDS011;321;48.814;9.132;2023-04-28T13:12:35;1.40;;;0.70;;
677;SDS011;321;48.814;9.132;2023-04-28T13:15:01;1.20;;;0.40;;
677;SDS011;321;48.814;9.132;2023-04-28T13:17:26;2.33;;;0.73;;
677;SDS011;321;48.814;9.132;2023-04-28T13:19:52;1.10;;;0.50;;
677;SDS011;321;48.814;9.132;2023-04-28T13:22:18;5.30;;;0.97;;
677;SDS011;321;48.814;9.132;2023-04-28T13:24:45;1.20;;;0.50;;
677;SDS011;321;48.814;9.132;2023-04-28T13:27:11;1.30;;;0.57;;
677;SDS011;321;48.814;9.132;2023-04-28T13:29:37;1.20;;;0.50;;
677;SDS011;321;48.814;9.132;2023-04-28T13:32:02;1.20;;;0.50;;
677;SDS011;321;48.814;9.132;2023-04-28T13:34:29;1.57;;;0.87;;
677;SDS011;321;48.814;9.132;2023-04-28T13:36:55;1.40;;;0.60;;
677;SDS011;321;48.814;9.132;2023-04-28T13:39:21;1.20;;;0.40;;
677;SDS011;321;48.814;9.132;2023-04-28T13:41:47;1.20;;;0.50;;
677;SDS011;321;48.814;9.132;2023-04-28T13:44:13;1.40;;;0.73;;
677;SDS011;321;48.814;9.132;2023-04-28T13:46:40;1.40;;;0.60;;
677;SDS011;321;48.814;9.132;2023-04-28T13:49:06;1.40;;;0.53;;
677;SDS011;321;48.814;9.132;2023-04-28T13:51:33;1.10;;;0.40;;
677;SDS011;321;48.814;9.132;2023-04-28T13:53:59;1.27;;;0.53;;
677;SDS011;321;48.814;9.132;2023-04-28T13:56:28;1.20;;;0.60;;
677;SDS011;321;48.814;9.132;2023-04-28T13:58:55;1.60;;;0.50;;
677;SDS011;321;48.814;9.132;2023-04-28T14:01:20;1.73;;;0.57;;
677;SDS011;321;48.814;9.132;2023-04-28T14:03:46;1.30;;;0.53;;
677;SDS011;321;48.814;9.132;2023-04-28T14:06:11;1.23;;;0.50;;
677;SDS011;321;48.814;9.132;2023-04-28T14:08:37;1.20;;;0.50;;
677;SDS011;321;48.814;9.132;2023-04-28T14:11:03;1.10;;;0.40;;
677;SDS011;321;48.814;9.132;2023-04-28T14:13:28;1.17;;;0.50;;
677;SDS011;321;48.814;9.132;2023-04-28T14:15:54;1.43;;;0.70;;
677;SDS011;321;48.814;9.132;2023-04-28T14:18:21;1.17;;;0.50;;
677;SDS011;321;48.814;9.132;2023-04-28T14:20:47;1.20;;;0.50;;
677;SDS011;321;48.814;9.132;2023-04-28T14:23:13;1.50;;;0.60;;
677;SDS011;321;48.814;9.132;2023-04-28T14:25:39;1.10;;;0.40;;
677;SDS011;321;48.814;9.132;2023-04-28T14:28:05;2.23;;;0.80;;
677;SDS011;321;48.814;9.132;2023-04-28T14:30:30;1.30;;;0.63;;
677;SDS011;321;48.814;9.132;2023-04-28T14:32:56;1.30;;;0.80;;
677;SDS011;321;48.814;9.132;2023-04-28T14:35:22;1.50;;;0.60;;
677;SDS011;321;48.814;9.132;2023-04-28T14:37:48;1.20;;;0.50;;
677;SDS011;321;48.814;9.132;2023-04-28T14:40:13;1.20;;;0.50;;
677;SDS011;321;48.814;9.132;2023-04-28T14:42:40;1.60;;;0.73;;
677;SDS011;321;48.814;9.132;2023-04-28T14:45:06;1.30;;;0.63;;
677;SDS011;321;48.814;9.132;2023-04-28T14:47:33;1.60;;;0.60;;
677;SDS011;321;48.814;9.132;2023-04-28T14:49:59;1.60;;;0.60;;
677;SDS011;321;48.814;9.132;2023-04-28T14:52:25;1.10;;;0.40;;
677;SDS011;321;48.814;9.132;2023-04-28T14:54:53;1.30;;;0.57;;
677;SDS011;321;48.814;9.132;2023-04-28T14:57:19;1.10;;;0.40;;
677;SDS011;321;48.814;9.132;2023-04-28T14:59:45;9.33;;;0.70;;
677;SDS011;321;48.814;9.132;2023-04-28T15:02:11;1.43;;;0.70;;
677;SDS011;321;48.814;9.132;2023-04-28T15:04:37;1.40;;;0.83;;
677;SDS011;321;48.814;9.132;2023-04-28T15:07:03;1.30;;;0.53;;
677;SDS011;321;48.814;9.132;2023-04-28T15:09:29;1.30;;;0.50;;
677;SDS011;321;48.814;9.132;2023-04-28T15:11:55;1.83;;;0.70;;
677;SDS011;321;48.814;9.132;2023-04-28T15:14:21;1.30;;;0.53;;
677;SDS011;321;48.814;9.132;2023-04-28T15:16:46;1.27;;;0.60;;
677;SDS011;321;48.814;9.132;2023-04-28T15:19:12;1.17;;;0.50;;
677;SDS011;321;48.814;9.132;2023-04-28T15:21:38;1.20;;;0.40;;
677;SDS011;321;48.814;9.132;2023-04-28T15:24:04;1.20;;;0.50;;
677;SDS011;321;48.814;9.132;2023-04-28T15:26:30;1.30;;;0.50;;
677;SDS011;321;48.814;9.132;2023-04-28T15:28:56;1.10;;;0.50;;
677;SDS011;321;48.814;9.132;2023-04-28T15:31:23;1.30;;;0.50;;
677;SDS011;321;48.814;9.132;2023-04-28T15:33:49;1.10;;;0.40;;
677;SDS011;321;48.814;9.132;2023-04-28T15:36:16;1.37;;;0.60;;
677;SDS011;321;48.814;9.132;2023-04-28T15:38:43;1.10;;;0.40;;
677;SDS011;321;48.814;9.132;2023-04-28T15:41:10;1.10;;;0.30;;
677;SDS011;321;48.814;9.132;2023-04-28T15:43:36;1.10;;;0.40;;
677;SDS011;321;48.814;9.132;2023-04-28T15:46:01;1.23;;;0.47;;
677;SDS011;321;48.814;9.132;2023-04-28T15:48:28;1.20;;;0.40;;
677;SDS011;321;48.814;9.132;2023-04-28T15:50:54;1.30;;;0.50;;
677;SDS011;321;48.814;9.132;2023-04-28T15:53:20;1.10;;;0.30;;
677;SDS011;321;48.814;9.132;2023-04-28T15:55:46;1.10;;;0.40;;
677;SDS011;321;48.814;9.132;2023-04-28T15:58:12;1.10;;;0.30;;
677;SDS011;321;48.814;9.132;2023-04-28T16:00:37;1.20;;;0.40;;
677;SDS011;321;48.814;9.132;2023-04-28T16:03:04;1.10;;;0.43;;
677;SDS011;321;48.814;9.132;2023-04-28T16:05:30;1.10;;;0.30;;
677;SDS011;321;48.814;9.132;2023-04-28T16:07:55;1.10;;;0.40;;